createdAt,value
2018-05-07T00:01:57.739Z,78.01
2018-05-07T00:04:30.186Z,78.29
2018-05-07T00:07:05.905Z,79.91
2018-05-07T00:09:38.379Z,80.30
2018-05-07T00:12:10.846Z,81.68
2018-05-07T00:14:43.099Z,81.02
2018-05-07T00:17:16.575Z,80.45
2018-05-07T00:19:49.016Z,79.86
2018-05-07T00:22:21.296Z,79.82
2018-05-07T00:24:53.781Z,78.82
2018-05-07T00:27:26.119Z,78.06
2018-05-07T00:29:58.677Z,77.31
2018-05-07T00:32:34.166Z,78.21
2018-05-07T00:35:06.555Z,78.30
2018-05-07T00:37:41.879Z,77.52
2018-05-07T00:40:14.340Z,78.08
2018-05-07T00:42:46.659Z,78.64
2018-05-07T00:45:19.035Z,77.81
2018-05-07T00:47:51.709Z,78.44
2018-05-07T00:50:24.202Z,78.45
2018-05-07T00:52:59.693Z,77.70
2018-05-07T00:55:32.126Z,79.20
2018-05-07T00:58:04.491Z,79.54
2018-05-07T01:00:36.857Z,79.38
2018-05-07T01:03:12.276Z,79.38
2018-05-07T01:05:44.597Z,80.20
2018-05-07T01:08:17.198Z,80.94
2018-05-07T01:10:49.569Z,80.30
2018-05-07T01:13:25.144Z,79.85
2018-05-07T01:15:57.660Z,77.95
2018-05-07T01:18:33.139Z,78.84
2018-05-07T01:21:05.565Z,78.54
2018-05-07T01:23:38.132Z,78.51
2018-05-07T01:26:10.687Z,78.14
2018-05-07T01:28:43.042Z,78.43
2018-05-07T01:31:18.875Z,78.30
2018-05-07T01:33:54.593Z,79.63
2018-05-07T01:36:26.961Z,80.64
2018-05-07T01:39:02.713Z,80.04
2018-05-07T01:41:35.103Z,79.89
2018-05-07T01:44:10.536Z,79.69
2018-05-07T01:46:43.028Z,79.95
2018-05-07T01:49:18.543Z,79.15
2018-05-07T01:51:50.966Z,79.38
2018-05-07T01:54:26.489Z,79.09
2018-05-07T01:56:58.958Z,78.19
2018-05-07T01:59:31.229Z,78.64
2018-05-07T02:02:03.575Z,78.30
2018-05-07T02:04:36.077Z,78.68
2018-05-07T02:07:08.403Z,80.47
2018-05-07T02:09:43.808Z,79.72
2018-05-07T02:12:16.247Z,79.99
2018-05-07T02:14:48.800Z,81.21
2018-05-07T02:17:21.146Z,81.90
2018-05-07T02:19:53.687Z,81.82
2018-05-07T02:22:26.164Z,81.50
2018-05-07T02:25:01.748Z,81.39
2018-05-07T02:27:34.256Z,80.60
2018-05-07T02:30:09.892Z,80.60
2018-05-07T02:32:45.560Z,81.10
2018-05-07T02:35:18.169Z,81.03
2018-05-07T02:37:50.623Z,80.83
2018-05-07T02:40:23.003Z,80.04
2018-05-07T02:42:55.293Z,80.46
2018-05-07T02:45:27.779Z,80.55
2018-05-07T02:48:00.243Z,79.31
2018-05-07T02:50:32.903Z,79.67
2018-05-07T02:53:05.367Z,80.16
2018-05-07T02:55:40.910Z,80.85
2018-05-07T02:58:13.344Z,82.36
2018-05-07T03:00:48.827Z,82.77
2018-05-07T03:03:21.249Z,82.63
2018-05-07T03:05:56.953Z,83.35
2018-05-07T03:08:29.346Z,82.92
2018-05-07T03:11:01.816Z,81.92
2018-05-07T03:13:34.151Z,81.71
2018-05-07T03:16:09.830Z,80.98
2018-05-07T03:18:42.194Z,80.81
2018-05-07T03:21:17.729Z,80.94
2018-05-07T03:23:50.048Z,80.34
2018-05-07T03:26:22.448Z,80.01
2018-05-07T03:28:54.966Z,80.92
2018-05-07T03:31:27.277Z,79.96
2018-05-07T03:34:02.745Z,79.60
2018-05-07T03:36:38.217Z,79.98
2018-05-07T03:39:10.553Z,80.75
2018-05-07T03:41:46.176Z,79.65
2018-05-07T03:44:18.624Z,80.61
2018-05-07T03:46:50.971Z,80.41
2018-05-07T03:49:23.338Z,79.88
2018-05-07T03:51:58.748Z,81.39
2018-05-07T03:54:31.199Z,83.30
2018-05-07T03:57:06.569Z,83.48
2018-05-07T03:59:39.096Z,84.79
2018-05-07T04:02:11.537Z,84.30
2018-05-07T04:04:43.965Z,84.05
2018-05-07T04:07:19.821Z,84.11
2018-05-07T04:09:52.187Z,85.20
2018-05-07T04:12:27.880Z,85.75
2018-05-07T04:15:00.264Z,86.24
2018-05-07T04:17:47.916Z,85.61
2018-05-07T04:20:32.371Z,86.57
2018-05-07T04:23:16.816Z,86.48
2018-05-07T04:25:49.389Z,85.90
2018-05-07T04:28:24.837Z,85.50
2018-05-07T04:30:57.290Z,85.29
2018-05-07T04:33:32.959Z,85.42
2018-05-07T04:36:10.251Z,85.03
2018-05-07T04:38:45.958Z,84.90
2018-05-07T04:41:18.309Z,83.87
2018-05-07T04:43:50.577Z,83.78
2018-05-07T04:46:22.998Z,82.54
2018-05-07T04:48:58.633Z,83.40
2018-05-07T04:51:31.033Z,83.13
2018-05-07T04:54:03.575Z,82.19
2018-05-07T04:56:35.831Z,82.64
2018-05-07T04:59:11.468Z,83.41
2018-05-07T05:01:43.877Z,82.73
2018-05-07T05:04:16.177Z,83.53
2018-05-07T05:06:48.600Z,83.02
2018-05-07T05:09:21.059Z,83.90
2018-05-07T05:11:53.459Z,85.08
2018-05-07T05:14:28.962Z,83.51
2018-05-07T05:17:01.381Z,81.40
2018-05-07T05:19:37.272Z,82.81
2018-05-07T05:22:09.884Z,83.54
2018-05-07T05:24:42.365Z,84.30
2018-05-07T05:27:14.810Z,82.23
2018-05-07T05:29:47.169Z,83.31
2018-05-07T05:32:19.503Z,84.22
2018-05-07T05:34:52.076Z,84.38
2018-05-07T05:37:29.307Z,82.19
2018-05-07T05:40:04.777Z,82.75
2018-05-07T05:42:37.269Z,84.62
2018-05-07T05:45:12.911Z,84.52
2018-05-07T05:47:45.467Z,83.00
2018-05-07T05:50:21.119Z,83.46
2018-05-07T05:52:53.412Z,85.12
2018-05-07T05:55:28.797Z,85.71
2018-05-07T05:58:01.285Z,85.70
2018-05-07T06:00:36.716Z,85.65
2018-05-07T06:03:09.151Z,85.76
2018-05-07T06:05:41.779Z,86.13
2018-05-07T06:08:14.201Z,85.67
2018-05-07T06:10:46.596Z,85.42
2018-05-07T06:13:18.909Z,85.21
2018-05-07T06:15:54.348Z,85.23
2018-05-07T06:18:26.853Z,84.15
2018-05-07T06:21:02.482Z,84.72
2018-05-07T06:23:34.803Z,84.61
2018-05-07T06:26:07.326Z,84.11
2018-05-07T06:28:39.856Z,84.01
2018-05-07T06:31:15.205Z,84.30
2018-05-07T06:33:47.703Z,83.50
2018-05-07T06:36:20.055Z,83.86
2018-05-07T06:38:52.681Z,83.59
2018-05-07T06:41:25.305Z,84.07
2018-05-07T06:43:57.841Z,83.42
2018-05-07T06:46:30.295Z,83.40
2018-05-07T06:49:02.794Z,83.88
2018-05-07T06:51:38.361Z,84.00
2018-05-07T06:54:10.691Z,83.29
2018-05-07T06:56:46.501Z,83.09
2018-05-07T06:59:18.991Z,83.83
2018-05-07T07:01:51.428Z,83.66
2018-05-07T07:04:24.653Z,82.99
2018-05-07T07:07:00.299Z,82.76
2018-05-07T07:09:32.651Z,83.65
2018-05-07T07:12:08.105Z,83.43
2018-05-07T07:14:40.721Z,82.94
2018-05-07T07:17:16.235Z,82.98
2018-05-07T07:19:48.722Z,82.90
2018-05-07T07:22:21.083Z,82.17
2018-05-07T07:24:53.507Z,82.99
2018-05-07T07:27:29.009Z,82.16
2018-05-07T07:30:01.453Z,82.00
2018-05-07T07:32:36.947Z,81.87
2018-05-07T07:35:09.345Z,81.88
2018-05-07T07:37:47.585Z,80.69
2018-05-07T07:40:23.227Z,80.09
2018-05-07T07:42:55.793Z,80.37
2018-05-07T07:45:28.286Z,79.13
2018-05-07T07:48:04.100Z,78.74
2018-05-07T07:50:36.549Z,77.79
2018-05-07T07:53:08.943Z,77.00
2018-05-07T07:55:41.223Z,76.88
2018-05-07T07:58:16.966Z,76.04
2018-05-07T08:00:49.387Z,75.61
2018-05-07T08:03:24.973Z,75.27
2018-05-07T08:05:57.440Z,73.67
2018-05-07T08:08:32.989Z,69.85
2018-05-07T08:11:05.555Z,71.88
2018-05-07T08:13:41.195Z,70.53
2018-05-07T08:16:13.736Z,69.69
2018-05-07T08:18:52.264Z,66.14
2018-05-07T08:21:24.554Z,64.53
2018-05-07T08:23:59.878Z,65.59
2018-05-07T08:26:32.171Z,64.87
2018-05-07T08:29:07.898Z,65.82
2018-05-07T08:31:40.235Z,67.81
2018-05-07T08:34:12.767Z,64.81
2018-05-07T08:36:45.379Z,66.09
2018-05-07T08:39:20.923Z,68.47
2018-05-07T08:41:58.229Z,66.06
2018-05-07T08:44:33.794Z,64.80
2018-05-07T08:47:06.168Z,63.59
2018-05-07T08:49:38.644Z,62.74
2018-05-07T08:52:11.066Z,61.41
2018-05-07T08:54:46.704Z,61.70
2018-05-07T08:57:19.123Z,59.71
2018-05-07T08:59:51.425Z,60.23
2018-05-07T09:02:23.956Z,54.70
2018-05-07T09:04:56.244Z,57.71
2018-05-07T09:07:28.716Z,55.65
2018-05-07T09:10:01.180Z,58.79
2018-05-07T09:12:33.465Z,58.03
2018-05-07T09:15:06.038Z,56.46
2018-05-07T09:17:38.543Z,61.59
2018-05-07T09:20:10.895Z,61.63
2018-05-07T09:22:43.602Z,57.74
2018-05-07T09:25:15.928Z,58.87
2018-05-07T09:27:48.196Z,62.41
2018-05-07T09:30:20.550Z,65.35
2018-05-07T09:32:53.065Z,64.71
2018-05-07T09:35:28.705Z,65.18
2018-05-07T09:38:01.059Z,64.92
2018-05-07T09:40:36.837Z,64.54
2018-05-07T09:43:09.453Z,66.11
2018-05-07T09:45:45.234Z,66.78
2018-05-07T09:48:17.802Z,66.77
2018-05-07T09:50:50.044Z,64.36
2018-05-07T09:53:22.327Z,64.65
2018-05-07T09:55:57.835Z,68.21
2018-05-07T09:58:30.196Z,66.02
2018-05-07T10:01:02.793Z,64.62
2018-05-07T10:03:35.128Z,66.98
2018-05-07T10:06:13.768Z,67.88
2018-05-07T10:08:48.116Z,66.11
2018-05-07T10:11:26.103Z,67.61
2018-05-07T10:13:58.584Z,69.22
2018-05-07T10:16:31.194Z,69.46
2018-05-07T10:19:03.629Z,68.69
2018-05-07T10:21:42.444Z,71.15
2018-05-07T10:24:15.042Z,71.37
2018-05-07T10:26:47.528Z,69.29
2018-05-07T10:29:19.811Z,69.74
2018-05-07T10:31:55.457Z,70.21
2018-05-07T10:34:27.882Z,71.13
2018-05-07T10:37:00.412Z,73.22
2018-05-07T10:39:40.617Z,73.28
2018-05-07T10:42:13.404Z,70.84
2018-05-07T10:44:49.170Z,72.60
2018-05-07T10:47:21.866Z,67.83
2018-05-07T10:49:54.432Z,67.85
2018-05-07T10:52:35.148Z,66.44
2018-05-07T10:55:10.605Z,67.64
2018-05-07T10:57:49.858Z,69.08
2018-05-07T11:00:22.471Z,65.98
2018-05-07T11:02:58.226Z,61.03
2018-05-07T11:05:34.413Z,65.22
2018-05-07T11:08:06.913Z,66.37
2018-05-07T11:10:39.338Z,63.86
2018-05-07T11:13:14.984Z,68.69
2018-05-07T11:15:47.392Z,61.03
2018-05-07T11:18:23.224Z,63.40
2018-05-07T11:20:55.631Z,65.57
2018-05-07T11:23:34.506Z,63.41
2018-05-07T11:26:07.058Z,61.21
2018-05-07T11:28:39.818Z,58.57
2018-05-07T11:31:12.502Z,58.31
2018-05-07T11:33:47.988Z,56.20
2018-05-07T11:36:20.602Z,55.07
2018-05-07T11:38:47.109Z,60.27
2018-05-07T11:41:13.526Z,59.35
2018-05-07T11:43:43.173Z,53.81
2018-05-07T11:46:09.678Z,54.54
2018-05-07T11:48:36.071Z,55.42
2018-05-07T11:51:02.413Z,54.68
2018-05-07T11:53:28.739Z,53.28
2018-05-07T11:55:55.148Z,50.70
2018-05-07T11:58:21.452Z,56.06
2018-05-07T12:00:50.856Z,55.19
2018-05-07T12:03:20.255Z,53.59
2018-05-07T12:05:46.569Z,52.15
2018-05-07T12:08:12.881Z,55.05
2018-05-07T12:10:39.254Z,53.92
2018-05-07T12:13:05.559Z,51.51
2018-05-07T12:15:31.868Z,54.06
2018-05-07T12:18:01.360Z,49.64
2018-05-07T12:20:27.696Z,48.82
2018-05-07T12:22:58.651Z,44.39
2018-05-07T12:25:34.354Z,47.30
2018-05-07T12:28:05.752Z,43.77
2018-05-07T12:30:35.417Z,43.65
2018-05-07T12:33:06.256Z,44.86
2018-05-07T12:35:33.273Z,40.95
2018-05-07T12:38:02.806Z,40.57
2018-05-07T12:40:32.439Z,41.45
2018-05-07T12:42:59.116Z,38.18
2018-05-07T12:45:25.847Z,39.71
2018-05-07T12:47:52.895Z,40.10
2018-05-07T12:50:19.622Z,40.19
2018-05-07T12:52:52.559Z,42.60
2018-05-07T12:55:18.961Z,42.08
2018-05-07T12:57:45.277Z,41.99
2018-05-07T13:00:14.783Z,42.65
2018-05-07T13:02:41.135Z,42.40
2018-05-07T13:05:07.471Z,41.44
2018-05-07T13:07:33.845Z,41.09
2018-05-07T13:10:00.190Z,38.41
2018-05-07T13:12:26.532Z,38.71
2018-05-07T13:14:59.013Z,38.25
2018-05-07T13:17:25.359Z,37.80
2018-05-07T13:19:51.699Z,38.63
2018-05-07T13:22:21.187Z,35.94
2018-05-07T13:24:50.933Z,36.92
2018-05-07T13:27:17.224Z,35.21
2018-05-07T13:29:43.675Z,38.64
2018-05-07T13:32:16.647Z,39.17
2018-05-07T13:34:43.143Z,40.61
2018-05-07T13:37:12.591Z,41.24
2018-05-07T13:39:38.928Z,40.53
2018-05-07T13:42:05.281Z,38.84
2018-05-07T13:44:31.724Z,39.75
2018-05-07T13:46:58.080Z,39.53
2018-05-07T13:49:30.671Z,40.79
2018-05-07T13:52:00.125Z,42.18
2018-05-07T13:54:26.467Z,42.80
2018-05-07T13:56:56.556Z,43.54
2018-05-07T13:59:22.991Z,44.08
2018-05-07T14:01:54.447Z,42.78
2018-05-07T14:04:21.893Z,39.56
2018-05-07T14:09:28.645Z,40.20
2018-05-07T14:11:54.952Z,41.58
2018-05-07T14:14:21.388Z,42.92
2018-05-07T14:16:47.876Z,43.13
2018-05-07T14:19:14.175Z,41.86
2018-05-07T14:21:43.576Z,42.62
2018-05-07T14:24:09.920Z,42.22
2018-05-07T14:26:36.233Z,43.46
2018-05-07T14:29:02.693Z,44.08
2018-05-07T14:31:29.021Z,45.35
2018-05-07T14:33:55.354Z,44.79
2018-05-07T14:36:21.718Z,43.55
2018-05-07T14:38:48.104Z,45.80
2018-05-07T14:41:14.422Z,47.67
2018-05-07T14:43:43.848Z,47.72
2018-05-07T14:46:10.195Z,49.12
2018-05-07T14:48:36.541Z,47.89
2018-05-07T14:51:10.788Z,48.20
2018-05-07T14:53:37.103Z,47.43
2018-05-07T14:56:03.458Z,47.00
2018-05-07T14:58:29.829Z,47.89
2018-05-07T15:00:59.208Z,48.56
2018-05-07T15:03:25.586Z,48.53
2018-05-07T15:05:52.050Z,49.07
2018-05-07T15:08:18.370Z,48.91
2018-05-07T15:10:44.731Z,49.55
2018-05-07T15:13:14.366Z,49.40
2018-05-07T15:15:43.986Z,50.85
2018-05-07T15:18:13.419Z,50.96
2018-05-07T15:20:43.099Z,50.79
2018-05-07T15:23:09.452Z,51.39
2018-05-07T15:25:35.769Z,51.39
2018-05-07T15:28:08.240Z,52.38
2018-05-07T15:30:34.587Z,51.88
2018-05-07T15:33:00.918Z,52.12
2018-05-07T15:35:27.351Z,51.53
2018-05-07T15:37:53.939Z,52.68
2018-05-07T15:40:20.259Z,52.50
2018-05-07T15:42:46.654Z,54.03
2018-05-07T15:45:12.989Z,54.22
2018-05-07T15:47:39.304Z,55.40
2018-05-07T15:50:08.942Z,55.02
2018-05-07T15:52:40.312Z,54.94
2018-05-07T15:55:06.627Z,55.05
2018-05-07T15:57:36.226Z,56.57
2018-05-07T16:00:02.608Z,56.39
2018-05-07T16:02:28.943Z,55.89
2018-05-07T16:04:55.344Z,56.51
2018-05-07T16:07:21.702Z,57.74
2018-05-07T16:09:48.047Z,61.17
2018-05-07T16:12:17.808Z,62.77
2018-05-07T16:14:44.125Z,63.94
2018-05-07T16:17:10.482Z,63.34
2018-05-07T16:19:36.911Z,63.72
2018-05-07T16:22:03.435Z,63.41
2018-05-07T16:24:29.626Z,62.67
2018-05-07T16:26:59.293Z,61.38
2018-05-07T16:29:25.654Z,62.47
2018-05-07T16:31:51.999Z,64.10
2018-05-07T16:34:18.379Z,64.27
2018-05-07T16:36:44.742Z,63.69
2018-05-07T16:39:11.067Z,63.31
2018-05-07T16:41:37.472Z,63.33
2018-05-07T16:44:03.810Z,64.10
2018-05-07T16:46:30.188Z,63.90
2018-05-07T16:48:56.581Z,64.15
2018-05-07T16:51:22.892Z,64.44
2018-05-07T16:53:53.947Z,62.57
2018-05-07T16:56:20.371Z,62.82
2018-05-07T16:58:46.731Z,63.85
2018-05-07T17:01:13.144Z,64.99
2018-05-07T17:03:42.606Z,65.84
2018-05-07T17:06:08.925Z,67.02
2018-05-07T17:08:35.290Z,65.95
2018-05-07T17:11:04.976Z,65.39
2018-05-07T17:13:31.349Z,64.37
2018-05-07T17:58:12.804Z,65.95
2018-05-07T18:00:39.165Z,64.89
2018-05-07T18:03:05.528Z,64.90
2018-05-07T18:05:35.272Z,64.27
2018-05-07T18:08:01.718Z,64.65
2018-05-07T18:10:28.183Z,65.08
2018-05-07T18:13:00.638Z,64.76
2018-05-07T18:15:27.006Z,65.09
2018-05-07T18:17:59.125Z,65.65
2018-05-07T18:20:25.619Z,65.34
2018-05-07T18:22:52.000Z,64.69
2018-05-07T18:25:18.411Z,64.45
2018-05-07T18:27:44.816Z,65.15
2018-05-07T18:30:11.163Z,64.90
2018-05-07T18:32:37.498Z,64.08
2018-05-07T18:35:03.972Z,64.66
2018-05-07T18:37:30.357Z,65.68
2018-05-07T18:39:56.707Z,66.29
2018-05-07T18:42:23.439Z,66.76
2018-05-07T18:44:49.847Z,66.63
2018-05-07T18:47:16.221Z,67.44
2018-05-07T18:49:42.616Z,67.87
2018-05-07T18:52:09.172Z,67.97
2018-05-07T18:54:38.866Z,68.50
2018-05-07T18:57:11.409Z,68.71
2018-05-07T18:59:49.419Z,68.53
2018-05-07T19:02:25.199Z,69.12
2018-05-07T19:04:57.678Z,69.20
2018-05-07T19:07:33.325Z,69.22
2018-05-07T19:10:05.691Z,69.72
2018-05-07T19:12:41.463Z,70.41
2018-05-07T19:15:13.940Z,70.67
2018-05-07T19:17:53.032Z,70.15
2018-05-07T19:20:25.533Z,70.80
2018-05-07T19:22:58.126Z,71.26
2018-05-07T19:25:30.582Z,71.32
2018-05-07T19:28:03.094Z,72.28
2018-05-07T19:30:35.585Z,73.04
2018-05-07T19:33:11.085Z,73.42
2018-05-07T19:35:43.556Z,73.30
2018-05-07T19:38:16.073Z,72.76
2018-05-07T19:40:48.645Z,73.11
2018-05-07T19:43:20.942Z,72.13
2018-05-07T19:45:53.200Z,72.87
2018-05-07T19:48:28.925Z,73.28
2018-05-07T19:51:04.660Z,72.99
2018-05-07T19:53:40.339Z,72.95
2018-05-07T19:56:12.905Z,73.08
2018-05-07T19:58:45.329Z,73.70
2018-05-07T20:01:21.124Z,73.53
2018-05-07T20:03:53.605Z,74.40
2018-05-07T20:06:26.049Z,73.89
2018-05-07T20:08:58.665Z,74.64
2018-05-07T20:11:31.751Z,73.23
2018-05-07T20:14:04.231Z,72.81
2018-05-07T20:16:36.812Z,73.98
2018-05-07T20:19:09.358Z,74.29
2018-05-07T20:21:41.912Z,75.44
2018-05-07T20:24:14.344Z,76.34
2018-05-07T20:26:46.665Z,77.10
2018-05-07T20:29:25.209Z,78.69
2018-05-07T20:31:57.624Z,79.73
2018-05-07T20:34:33.300Z,78.78
2018-05-07T20:37:05.706Z,77.84
2018-05-07T20:39:37.958Z,77.68
2018-05-07T20:42:10.292Z,77.58
2018-05-07T20:44:42.778Z,79.58
2018-05-07T20:47:15.018Z,80.42
2018-05-07T20:49:50.617Z,79.71
2018-05-07T20:52:22.927Z,79.27
2018-05-07T20:54:55.233Z,79.36
2018-05-07T20:57:27.733Z,78.80
2018-05-07T21:00:03.101Z,78.91
2018-05-07T21:02:35.684Z,78.14
2018-05-07T21:05:11.305Z,77.56
2018-05-07T21:07:43.721Z,77.23
2018-05-07T21:10:19.235Z,77.00
2018-05-07T21:12:51.692Z,77.12
2018-05-07T21:15:27.239Z,77.75
2018-05-07T21:17:59.599Z,78.19
2018-05-07T21:20:35.011Z,78.43
2018-05-07T21:23:07.482Z,77.93
2018-05-07T21:25:43.181Z,77.83
2018-05-07T21:28:15.462Z,77.05
2018-05-07T21:30:47.827Z,77.02
2018-05-07T21:33:20.176Z,76.88
2018-05-07T21:35:55.747Z,77.38
2018-05-07T21:38:28.052Z,77.64
2018-05-07T21:41:06.635Z,77.06
2018-05-07T21:43:38.977Z,77.83
2018-05-07T21:46:11.360Z,77.91
2018-05-07T21:48:44.609Z,77.75
2018-05-07T21:51:17.109Z,77.67
2018-05-07T21:53:49.416Z,77.27
2018-05-07T21:56:24.770Z,77.65
2018-05-07T21:58:57.221Z,78.85
2018-05-07T22:01:29.466Z,79.97
2018-05-07T22:04:02.011Z,79.11
2018-05-07T22:06:37.737Z,79.45
2018-05-07T22:09:10.740Z,79.15
2018-05-07T22:11:46.479Z,78.40
2018-05-07T22:14:18.855Z,78.08
2018-05-07T22:16:54.287Z,78.07
2018-05-07T22:19:26.649Z,78.13
2018-05-07T22:22:02.110Z,81.38
2018-05-07T22:24:34.535Z,83.17
2018-05-07T22:27:09.934Z,83.58
2018-05-07T22:29:42.430Z,83.78
2018-05-07T22:32:14.789Z,83.65
2018-05-07T22:34:47.153Z,82.69
2018-05-07T22:37:22.622Z,81.58
2018-05-07T22:39:55.071Z,81.42
2018-05-07T22:42:30.914Z,81.12
2018-05-07T22:45:03.421Z,79.92
2018-05-07T22:47:38.851Z,80.43
2018-05-07T22:50:11.354Z,79.78
2018-05-07T22:52:43.709Z,79.33
2018-05-07T22:55:19.094Z,79.15
2018-05-07T22:57:51.471Z,78.96
2018-05-07T23:00:23.698Z,78.46
2018-05-07T23:02:59.115Z,78.60
2018-05-07T23:05:34.807Z,78.51
2018-05-07T23:08:10.481Z,78.28
2018-05-07T23:10:43.005Z,78.10
2018-05-07T23:13:15.265Z,78.68
2018-05-07T23:15:47.499Z,78.77
2018-05-07T23:18:19.774Z,78.01
2018-05-07T23:20:52.134Z,77.37
2018-05-07T23:23:27.931Z,77.47
2018-05-07T23:26:00.458Z,77.94
2018-05-07T23:28:35.829Z,77.83
2018-05-07T23:31:08.255Z,77.50
2018-05-07T23:33:43.878Z,78.26
2018-05-07T23:36:16.251Z,78.23
2018-05-07T23:38:48.630Z,78.75
2018-05-07T23:41:20.962Z,78.81
2018-05-07T23:43:56.750Z,78.36
2018-05-07T23:46:29.147Z,78.28
2018-05-07T23:49:04.566Z,78.15
2018-05-07T23:51:36.966Z,78.09
2018-05-07T23:54:12.691Z,78.47
2018-05-07T23:56:45.144Z,78.22
2018-05-07T23:59:17.650Z,78.30
